sensor_id;sensor_type;location;lat;lon;timestamp;pressure;altitude;pressure_sealevel;temperature;humidity
56182;BME280;51963;46.052;14.544;2023-03-08T00:00:14;96866.88;;;6.15;100.00
56182;BME280;51963;46.052;14.544;2023-03-08T00:02:40;96862.91;;;6.33;100.00
56182;BME280;51963;46.052;14.544;2023-03-08T00:05:06;96858.28;;;5.93;100.00
56182;BME280;51963;46.052;14.544;2023-03-08T00:07:32;96865.13;;;5.87;100.00
56182;BME280;51963;46.052;14.544;2023-03-08T00:09:58;96865.47;;;5.77;100.00
56182;BME280;51963;46.052;14.544;2023-03-08T00:12:24;96862.59;;;5.65;100.00
56182;BME280;51963;46.052;14.544;2023-03-08T00:14:52;96859.78;;;5.67;100.00
56182;BME280;51963;46.052;14.544;2023-03-08T00:17:20;96858.13;;;5.59;100.00
56182;BME280;51963;46.052;14.544;2023-03-08T00:19:46;96869.03;;;5.63;100.00
56182;BME280;51963;46.052;14.544;2023-03-08T00:22:12;96872.88;;;5.67;100.00
56182;BME280;51963;46.052;14.544;2023-03-08T00:24:38;96870.75;;;5.84;100.00
56182;BME280;51963;46.052;14.544;2023-03-08T00:27:03;96866.69;;;5.75;100.00
56182;BME280;51963;46.052;14.544;2023-03-08T00:29:30;96870.47;;;6.00;100.00
56182;BME280;51963;46.052;14.544;2023-03-08T00:31:56;96876.84;;;5.91;100.00
56182;BME280;51963;46.052;14.544;2023-03-08T00:34:21;96868.00;;;5.99;100.00
56182;BME280;51963;46.052;14.544;2023-03-08T00:36:47;96892.28;;;6.08;100.00
56182;BME280;51963;46.052;14.544;2023-03-08T00:39:16;96889.91;;;6.13;100.00
56182;BME280;51963;46.052;14.544;2023-03-08T00:41:42;96883.91;;;5.91;100.00
56182;BME280;51963;46.052;14.544;2023-03-08T00:44:08;96898.19;;;5.81;100.00
56182;BME280;51963;46.052;14.544;2023-03-08T00:46:33;96898.63;;;5.85;100.00
56182;BME280;51963;46.052;14.544;2023-03-08T00:48:59;96902.63;;;5.81;100.00
56182;BME280;51963;46.052;14.544;2023-03-08T00:51:25;96904.47;;;5.87;100.00
56182;BME280;51963;46.052;14.544;2023-03-08T00:53:51;96904.63;;;5.79;100.00
56182;BME280;51963;46.052;14.544;2023-03-08T00:56:17;96892.47;;;5.71;100.00
56182;BME280;51963;46.052;14.544;2023-03-08T00:58:44;96904.63;;;5.79;100.00
56182;BME280;51963;46.052;14.544;2023-03-08T01:01:14;96910.25;;;5.76;100.00
56182;BME280;51963;46.052;14.544;2023-03-08T01:03:41;96886.81;;;5.67;100.00
56182;BME280;51963;46.052;14.544;2023-03-08T01:06:09;96907.13;;;5.94;100.00
56182;BME280;51963;46.052;14.544;2023-03-08T01:08:35;96912.44;;;6.00;100.00
56182;BME280;51963;46.052;14.544;2023-03-08T01:11:01;96899.31;;;6.00;100.00
56182;BME280;51963;46.052;14.544;2023-03-08T01:13:33;96901.25;;;6.27;100.00
56182;BME280;51963;46.052;14.544;2023-03-08T01:15:59;96909.31;;;6.25;100.00
56182;BME280;51963;46.052;14.544;2023-03-08T01:18:26;96911.72;;;6.20;100.00
56182;BME280;51963;46.052;14.544;2023-03-08T01:21:00;96913.84;;;6.45;100.00
56182;BME280;51963;46.052;14.544;2023-03-08T01:23:27;96899.59;;;6.19;100.00
56182;BME280;51963;46.052;14.544;2023-03-08T01:26:28;96920.25;;;6.36;100.00
56182;BME280;51963;46.052;14.544;2023-03-08T01:28:55;96916.19;;;6.26;100.00
56182;BME280;51963;46.052;14.544;2023-03-08T01:31:27;96903.84;;;6.20;100.00
56182;BME280;51963;46.052;14.544;2023-03-08T01:33:54;96878.16;;;6.09;100.00
56182;BME280;51963;46.052;14.544;2023-03-08T01:36:22;96901.69;;;6.37;100.00
56182;BME280;51963;46.052;14.544;2023-03-08T01:38:48;96900.28;;;6.35;100.00
56182;BME280;51963;46.052;14.544;2023-03-08T01:41:17;96899.78;;;6.18;100.00
56182;BME280;51963;46.052;14.544;2023-03-08T01:43:46;96896.16;;;6.12;100.00
56182;BME280;51963;46.052;14.544;2023-03-08T01:48:47;96891.53;;;6.21;100.00
56182;BME280;51963;46.052;14.544;2023-03-08T01:51:23;96901.63;;;6.24;100.00
56182;BME280;51963;46.052;14.544;2023-03-08T01:53:52;96905.66;;;6.20;100.00
56182;BME280;51963;46.052;14.544;2023-03-08T01:56:19;96904.38;;;6.57;100.00
56182;BME280;51963;46.052;14.544;2023-03-08T01:58:47;96904.06;;;7.14;100.00
56182;BME280;51963;46.052;14.544;2023-03-08T02:01:15;96892.31;;;7.17;100.00
56182;BME280;51963;46.052;14.544;2023-03-08T02:03:43;96856.53;;;7.36;100.00
56182;BME280;51963;46.052;14.544;2023-03-08T02:06:10;96878.75;;;7.54;100.00
56182;BME280;51963;46.052;14.544;2023-03-08T02:08:37;96884.81;;;7.61;100.00
56182;BME280;51963;46.052;14.544;2023-03-08T02:11:03;96883.00;;;7.55;100.00
56182;BME280;51963;46.052;14.544;2023-03-08T02:13:29;96884.22;;;7.59;100.00
56182;BME280;51963;46.052;14.544;2023-03-08T02:15:56;96890.63;;;7.90;100.00
56182;BME280;51963;46.052;14.544;2023-03-08T02:18:25;96879.94;;;7.64;100.00
56182;BME280;51963;46.052;14.544;2023-03-08T02:20:51;96893.25;;;7.83;100.00
56182;BME280;51963;46.052;14.544;2023-03-08T02:23:19;96884.56;;;7.83;100.00
56182;BME280;51963;46.052;14.544;2023-03-08T02:25:53;96896.28;;;7.87;100.00
56182;BME280;51963;46.052;14.544;2023-03-08T02:28:22;96887.94;;;8.03;100.00
56182;BME280;51963;46.052;14.544;2023-03-08T02:30:48;96895.06;;;7.96;100.00
56182;BME280;51963;46.052;14.544;2023-03-08T02:33:14;96882.53;;;7.78;100.00
56182;BME280;51963;46.052;14.544;2023-03-08T02:35:42;96861.31;;;7.73;100.00
56182;BME280;51963;46.052;14.544;2023-03-08T02:38:12;96898.47;;;8.10;100.00
56182;BME280;51963;46.052;14.544;2023-03-08T02:40:38;96898.84;;;8.14;100.00
56182;BME280;51963;46.052;14.544;2023-03-08T02:43:05;96903.03;;;8.28;100.00
56182;BME280;51963;46.052;14.544;2023-03-08T02:45:32;96895.19;;;8.15;100.00
56182;BME280;51963;46.052;14.544;2023-03-08T02:48:00;96895.84;;;8.03;100.00
56182;BME280;51963;46.052;14.544;2023-03-08T02:50:28;96902.94;;;7.96;100.00
56182;BME280;51963;46.052;14.544;2023-03-08T02:52:53;96884.47;;;8.10;100.00
56182;BME280;51963;46.052;14.544;2023-03-08T02:55:19;96889.59;;;7.91;100.00
56182;BME280;51963;46.052;14.544;2023-03-08T02:57:45;96891.25;;;7.78;100.00
56182;BME280;51963;46.052;14.544;2023-03-08T03:00:12;96877.94;;;7.60;100.00
56182;BME280;51963;46.052;14.544;2023-03-08T03:02:38;96889.88;;;7.56;100.00
56182;BME280;51963;46.052;14.544;2023-03-08T03:05:06;96892.06;;;7.66;100.00
56182;BME280;51963;46.052;14.544;2023-03-08T03:07:38;96903.03;;;7.56;100.00
56182;BME280;51963;46.052;14.544;2023-03-08T03:10:05;96900.03;;;7.32;100.00
56182;BME280;51963;46.052;14.544;2023-03-08T03:12:34;96901.84;;;7.11;100.00
56182;BME280;51963;46.052;14.544;2023-03-08T03:15:04;96906.06;;;6.99;100.00
56182;BME280;51963;46.052;14.544;2023-03-08T03:17:31;96918.38;;;6.85;100.00
56182;BME280;51963;46.052;14.544;2023-03-08T03:19:57;96925.59;;;6.69;100.00
56182;BME280;51963;46.052;14.544;2023-03-08T03:22:22;96927.25;;;6.84;100.00
56182;BME280;51963;46.052;14.544;2023-03-08T03:24:49;96934.44;;;6.48;100.00
56182;BME280;51963;46.052;14.544;2023-03-08T03:27:17;96938.59;;;6.29;100.00
56182;BME280;51963;46.052;14.544;2023-03-08T03:29:43;96933.84;;;6.04;100.00
56182;BME280;51963;46.052;14.544;2023-03-08T03:32:13;96944.72;;;6.01;100.00
56182;BME280;51963;46.052;14.544;2023-03-08T03:34:39;96951.69;;;5.87;100.00
56182;BME280;51963;46.052;14.544;2023-03-08T03:37:05;96964.72;;;5.73;100.00
56182;BME280;51963;46.052;14.544;2023-03-08T03:39:36;96966.63;;;5.58;100.00
56182;BME280;51963;46.052;14.544;2023-03-08T03:42:05;96961.66;;;5.41;100.00
56182;BME280;51963;46.052;14.544;2023-03-08T03:44:32;96939.69;;;5.21;100.00
56182;BME280;51963;46.052;14.544;2023-03-08T03:46:58;96936.13;;;5.28;100.00
56182;BME280;51963;46.052;14.544;2023-03-08T03:49:26;96947.38;;;5.22;100.00
56182;BME280;51963;46.052;14.544;2023-03-08T03:51:51;96934.81;;;5.18;100.00
56182;BME280;51963;46.052;14.544;2023-03-08T03:54:28;96941.63;;;5.12;100.00
56182;BME280;51963;46.052;14.544;2023-03-08T03:56:57;96947.63;;;5.06;100.00
56182;BME280;51963;46.052;14.544;2023-03-08T03:59:25;96953.78;;;4.98;100.00
56182;BME280;51963;46.052;14.544;2023-03-08T04:01:52;96965.63;;;4.94;100.00
56182;BME280;51963;46.052;14.544;2023-03-08T04:04:26;96967.63;;;4.92;100.00
56182;BME280;51963;46.052;14.544;2023-03-08T04:06:54;96973.69;;;4.92;100.00
56182;BME280;51963;46.052;14.544;2023-03-08T04:09:23;96974.34;;;4.79;100.00
56182;BME280;51963;46.052;14.544;2023-03-08T04:11:59;96974.03;;;4.67;100.00
56182;BME280;51963;46.052;14.544;2023-03-08T04:14:28;96969.91;;;4.58;100.00
56182;BME280;51963;46.052;14.544;2023-03-08T04:16:54;96968.75;;;4.46;100.00
56182;BME280;51963;46.052;14.544;2023-03-08T04:19:27;96978.50;;;4.37;100.00
56182;BME280;51963;46.052;14.544;2023-03-08T04:21:55;96987.00;;;4.24;100.00
56182;BME280;51963;46.052;14.544;2023-03-08T04:24:23;96983.22;;;4.11;100.00
56182;BME280;51963;46.052;14.544;2023-03-08T04:26:53;96977.53;;;3.93;100.00
56182;BME280;51963;46.052;14.544;2023-03-08T04:29:19;96984.09;;;3.89;100.00
56182;BME280;51963;46.052;14.544;2023-03-08T04:31:48;96957.22;;;3.65;100.00
56182;BME280;51963;46.052;14.544;2023-03-08T04:34:18;96986.31;;;3.77;100.00
56182;BME280;51963;46.052;14.544;2023-03-08T04:36:47;96977.56;;;3.70;100.00
56182;BME280;51963;46.052;14.544;2023-03-08T04:39:13;96970.72;;;3.54;100.00
56182;BME280;51963;46.052;14.544;2023-03-08T04:41:39;96982.88;;;3.61;100.00
56182;BME280;51963;46.052;14.544;2023-03-08T04:44:34;96985.84;;;3.58;100.00
56182;BME280;51963;46.052;14.544;2023-03-08T04:47:02;96972.34;;;3.55;100.00
56182;BME280;51963;46.052;14.544;2023-03-08T04:49:43;96992.56;;;3.76;100.00
56182;BME280;51963;46.052;14.544;2023-03-08T04:52:09;96990.91;;;3.60;100.00
56182;BME280;51963;46.052;14.544;2023-03-08T04:54:37;96992.13;;;3.49;100.00
56182;BME280;51963;46.052;14.544;2023-03-08T04:57:13;96997.56;;;3.47;100.00
56182;BME280;51963;46.052;14.544;2023-03-08T04:59:42;96995.44;;;3.43;100.00
56182;BME280;51963;46.052;14.544;2023-03-08T05:02:08;96992.53;;;3.61;100.00
56182;BME280;51963;46.052;14.544;2023-03-08T05:04:35;96991.56;;;3.77;100.00
56182;BME280;51963;46.052;14.544;2023-03-08T05:07:01;96988.97;;;3.92;100.00
56182;BME280;51963;46.052;14.544;2023-03-08T05:09:30;96979.94;;;4.24;100.00
56182;BME280;51963;46.052;14.544;2023-03-08T05:11:57;96976.66;;;4.52;100.00
56182;BME280;51963;46.052;14.544;2023-03-08T05:14:28;96988.84;;;4.97;100.00
56182;BME280;51963;46.052;14.544;2023-03-08T05:16:55;96968.88;;;4.96;100.00
56182;BME280;51963;46.052;14.544;2023-03-08T05:19:21;97005.81;;;5.23;100.00
56182;BME280;51963;46.052;14.544;2023-03-08T05:21:50;96997.47;;;5.34;100.00
56182;BME280;51963;46.052;14.544;2023-03-08T05:24:18;96998.38;;;5.48;100.00
56182;BME280;51963;46.052;14.544;2023-03-08T05:26:44;96992.34;;;5.76;100.00
56182;BME280;51963;46.052;14.544;2023-03-08T05:29:13;97001.66;;;6.00;100.00
56182;BME280;51963;46.052;14.544;2023-03-08T05:31:39;96996.41;;;6.00;100.00
56182;BME280;51963;46.052;14.544;2023-03-08T05:34:11;96996.13;;;5.95;100.00
56182;BME280;51963;46.052;14.544;2023-03-08T05:36:40;96998.03;;;6.01;100.00
56182;BME280;51963;46.052;14.544;2023-03-08T05:39:07;96995.72;;;5.63;100.00
56182;BME280;51963;46.052;14.544;2023-03-08T05:41:40;97003.44;;;5.28;100.00
56182;BME280;51963;46.052;14.544;2023-03-08T05:44:06;97013.31;;;5.26;100.00
56182;BME280;51963;46.052;14.544;2023-03-08T05:46:34;97011.38;;;5.13;100.00
56182;BME280;51963;46.052;14.544;2023-03-08T05:49:04;97029.16;;;5.18;100.00
56182;BME280;51963;46.052;14.544;2023-03-08T05:51:32;97029.47;;;5.08;100.00
56182;BME280;51963;46.052;14.544;2023-03-08T05:53:59;97026.34;;;5.19;100.00
56182;BME280;51963;46.052;14.544;2023-03-08T05:56:27;97011.81;;;5.17;100.00
56182;BME280;51963;46.052;14.544;2023-03-08T05:59:01;97036.47;;;5.44;100.00
56182;BME280;51963;46.052;14.544;2023-03-08T06:01:28;97028.34;;;5.39;100.00
56182;BME280;51963;46.052;14.544;2023-03-08T06:04:01;97028.19;;;5.40;100.00
56182;BME280;51963;46.052;14.544;2023-03-08T06:06:33;97038.03;;;5.60;100.00
56182;BME280;51963;46.052;14.544;2023-03-08T06:09:02;97040.16;;;5.71;100.00
56182;BME280;51963;46.052;14.544;2023-03-08T06:11:30;97041.38;;;5.76;100.00
56182;BME280;51963;46.052;14.544;2023-03-08T06:13:57;97044.75;;;5.91;100.00
56182;BME280;51963;46.052;14.544;2023-03-08T06:16:27;97056.84;;;5.92;100.00
56182;BME280;51963;46.052;14.544;2023-03-08T06:18:53;97065.72;;;5.91;100.00
56182;BME280;51963;46.052;14.544;2023-03-08T06:21:21;97062.94;;;6.21;100.00
56182;BME280;51963;46.052;14.544;2023-03-08T06:23:54;97059.50;;;6.21;100.00
56182;BME280;51963;46.052;14.544;2023-03-08T06:26:20;97065.97;;;6.25;100.00
56182;BME280;51963;46.052;14.544;2023-03-08T06:28:46;97073.69;;;6.26;100.00
56182;BME280;51963;46.052;14.544;2023-03-08T06:31:14;97063.19;;;6.26;100.00
56182;BME280;51963;46.052;14.544;2023-03-08T06:33:40;97065.72;;;6.48;100.00
56182;BME280;51963;46.052;14.544;2023-03-08T06:36:15;97074.09;;;6.65;100.00
56182;BME280;51963;46.052;14.544;2023-03-08T06:38:43;97067.94;;;6.86;100.00
56182;BME280;51963;46.052;14.544;2023-03-08T06:41:11;97074.72;;;7.23;100.00
56182;BME280;51963;46.052;14.544;2023-03-08T06:43:37;97065.22;;;7.28;100.00
56182;BME280;51963;46.052;14.544;2023-03-08T06:46:07;97069.75;;;7.55;100.00
56182;BME280;51963;46.052;14.544;2023-03-08T06:48:34;97067.34;;;8.00;100.00
56182;BME280;51963;46.052;14.544;2023-03-08T06:51:00;97059.81;;;8.24;100.00
56182;BME280;51963;46.052;14.544;2023-03-08T06:53:26;97049.91;;;8.33;100.00
56182;BME280;51963;46.052;14.544;2023-03-08T06:55:59;97066.06;;;8.63;100.00
56182;BME280;51963;46.052;14.544;2023-03-08T06:58:30;97065.59;;;8.80;100.00
56182;BME280;51963;46.052;14.544;2023-03-08T07:00:55;97061.69;;;8.89;100.00
56182;BME280;51963;46.052;14.544;2023-03-08T07:03:21;97060.63;;;9.04;100.00
56182;BME280;51963;46.052;14.544;2023-03-08T07:05:47;97064.28;;;9.03;100.00
56182;BME280;51963;46.052;14.544;2023-03-08T07:08:13;97070.69;;;9.20;100.00
56182;BME280;51963;46.052;14.544;2023-03-08T07:10:39;97077.94;;;9.32;100.00
56182;BME280;51963;46.052;14.544;2023-03-08T07:13:05;97036.31;;;9.02;100.00
56182;BME280;51963;46.052;14.544;2023-03-08T07:15:31;97081.59;;;9.31;100.00
56182;BME280;51963;46.052;14.544;2023-03-08T07:17:57;97088.81;;;9.49;100.00
56182;BME280;51963;46.052;14.544;2023-03-08T07:20:24;97083.31;;;9.50;98.64
56182;BME280;51963;46.052;14.544;2023-03-08T07:22:51;97087.22;;;9.41;98.79
56182;BME280;51963;46.052;14.544;2023-03-08T07:25:18;97093.59;;;9.65;99.07
56182;BME280;51963;46.052;14.544;2023-03-08T07:27:44;97088.34;;;9.59;96.87
56182;BME280;51963;46.052;14.544;2023-03-08T07:30:12;97113.78;;;9.78;96.33
56182;BME280;51963;46.052;14.544;2023-03-08T07:32:38;97113.91;;;10.16;96.43
56182;BME280;51963;46.052;14.544;2023-03-08T07:35:07;97116.00;;;10.32;94.93
56182;BME280;51963;46.052;14.544;2023-03-08T07:37:34;97121.03;;;10.66;93.76
56182;BME280;51963;46.052;14.544;2023-03-08T07:39:59;97126.13;;;10.86;89.95
56182;BME280;51963;46.052;14.544;2023-03-08T07:42:26;97120.47;;;11.01;89.75
56182;BME280;51963;46.052;14.544;2023-03-08T07:44:56;97122.59;;;10.92;89.43
56182;BME280;51963;46.052;14.544;2023-03-08T07:47:22;97112.53;;;10.82;89.79
56182;BME280;51963;46.052;14.544;2023-03-08T07:49:48;97103.41;;;10.97;90.52
56182;BME280;51963;46.052;14.544;2023-03-08T07:52:13;97103.78;;;11.00;90.08
56182;BME280;51963;46.052;14.544;2023-03-08T07:54:39;97094.94;;;11.25;87.29
56182;BME280;51963;46.052;14.544;2023-03-08T07:57:05;97093.69;;;11.28;88.33
56182;BME280;51963;46.052;14.544;2023-03-08T07:59:31;97091.59;;;10.99;88.06
56182;BME280;51963;46.052;14.544;2023-03-08T08:01:57;97094.00;;;11.01;88.11
56182;BME280;51963;46.052;14.544;2023-03-08T08:04:23;97097.09;;;10.98;87.87
56182;BME280;51963;46.052;14.544;2023-03-08T08:06:48;97098.56;;;11.12;87.00
56182;BME280;51963;46.052;14.544;2023-03-08T08:09:14;97100.41;;;11.12;89.72
56182;BME280;51963;46.052;14.544;2023-03-08T08:11:42;97115.66;;;11.59;87.80
56182;BME280;51963;46.052;14.544;2023-03-08T08:14:07;97121.66;;;11.97;85.67
56182;BME280;51963;46.052;14.544;2023-03-08T08:16:33;97113.19;;;12.18;85.12
56182;BME280;51963;46.052;14.544;2023-03-08T08:18:59;97113.19;;;12.66;81.40
56182;BME280;51963;46.052;14.544;2023-03-08T08:21:27;97122.84;;;12.84;78.93
56182;BME280;51963;46.052;14.544;2023-03-08T08:23:53;97124.59;;;12.79;80.03
56182;BME280;51963;46.052;14.544;2023-03-08T08:26:22;97129.56;;;12.63;79.22
56182;BME280;51963;46.052;14.544;2023-03-08T08:28:50;97126.09;;;12.74;79.81
56182;BME280;51963;46.052;14.544;2023-03-08T08:31:20;97128.72;;;12.86;80.88
56182;BME280;51963;46.052;14.544;2023-03-08T08:33:46;97124.25;;;12.87;79.02
56182;BME280;51963;46.052;14.544;2023-03-08T08:36:18;97117.69;;;12.66;79.91
56182;BME280;51963;46.052;14.544;2023-03-08T08:38:44;97129.81;;;13.14;79.19
56182;BME280;51963;46.052;14.544;2023-03-08T08:41:12;97130.03;;;13.25;78.40
56182;BME280;51963;46.052;14.544;2023-03-08T08:46:35;97125.84;;;13.53;74.78
56182;BME280;51963;46.052;14.544;2023-03-08T08:49:01;97133.69;;;13.76;74.23
56182;BME280;51963;46.052;14.544;2023-03-08T08:51:29;97135.88;;;13.79;73.41
56182;BME280;51963;46.052;14.544;2023-03-08T08:53:55;97130.88;;;13.83;73.06
56182;BME280;51963;46.052;14.544;2023-03-08T08:56:25;97123.66;;;13.96;71.74
56182;BME280;51963;46.052;14.544;2023-03-08T08:58:51;97104.41;;;13.30;74.39
56182;BME280;51963;46.052;14.544;2023-03-08T09:01:19;97120.44;;;13.35;72.82
56182;BME280;51963;46.052;14.544;2023-03-08T09:03:46;97121.44;;;13.05;74.65
56182;BME280;51963;46.052;14.544;2023-03-08T09:06:13;97130.63;;;13.27;74.29
56182;BME280;51963;46.052;14.544;2023-03-08T09:08:39;97122.94;;;13.54;73.41
56182;BME280;51963;46.052;14.544;2023-03-08T09:11:07;97134.28;;;13.96;72.85
56182;BME280;51963;46.052;14.544;2023-03-08T09:13:35;97133.41;;;14.41;69.54
56182;BME280;51963;46.052;14.544;2023-03-08T09:16:03;97125.72;;;14.62;66.83
56182;BME280;51963;46.052;14.544;2023-03-08T09:18:29;97129.13;;;14.57;67.70
56182;BME280;51963;46.052;14.544;2023-03-08T09:20:54;97117.53;;;14.46;66.58
56182;BME280;51963;46.052;14.544;2023-03-08T09:23:20;97137.91;;;14.23;66.59
56182;BME280;51963;46.052;14.544;2023-03-08T09:25:58;97139.13;;;14.33;66.03
56182;BME280;51963;46.052;14.544;2023-03-08T09:28:24;97107.25;;;13.53;67.21
56182;BME280;51963;46.052;14.544;2023-03-08T09:30:53;97126.25;;;13.61;68.18
56182;BME280;51963;46.052;14.544;2023-03-08T09:33:18;97122.06;;;14.29;66.98
56182;BME280;51963;46.052;14.544;2023-03-08T09:35:57;97133.63;;;14.57;66.56
56182;BME280;51963;46.052;14.544;2023-03-08T09:38:24;97135.34;;;14.12;68.74
56182;BME280;51963;46.052;14.544;2023-03-08T09:41:03;97128.81;;;14.19;66.55
56182;BME280;51963;46.052;14.544;2023-03-08T09:46:43;97112.44;;;13.76;67.71
56182;BME280;51963;46.052;14.544;2023-03-08T09:49:18;97107.13;;;13.76;67.87
56182;BME280;51963;46.052;14.544;2023-03-08T09:51:52;97111.69;;;13.23;70.23
56182;BME280;51963;46.052;14.544;2023-03-08T09:54:23;97105.25;;;13.19;70.25
56182;BME280;51963;46.052;14.544;2023-03-08T09:56:51;97104.38;;;13.01;70.68
56182;BME280;51963;46.052;14.544;2023-03-08T09:59:33;97103.69;;;12.94;72.23
56182;BME280;51963;46.052;14.544;2023-03-08T10:02:42;97114.56;;;12.81;72.24
56182;BME280;51963;46.052;14.544;2023-03-08T10:05:22;97104.63;;;12.88;71.80
56182;BME280;51963;46.052;14.544;2023-03-08T10:08:20;97109.16;;;12.64;73.26
56182;BME280;51963;46.052;14.544;2023-03-08T10:10:58;97081.50;;;12.59;72.30
56182;BME280;51963;46.052;14.544;2023-03-08T10:16:01;97098.53;;;12.64;74.04
56182;BME280;51963;46.052;14.544;2023-03-08T10:18:34;97094.03;;;12.88;71.97
56182;BME280;51963;46.052;14.544;2023-03-08T10:21:01;97092.84;;;13.37;69.58
56182;BME280;51963;46.052;14.544;2023-03-08T10:23:29;97087.53;;;13.37;71.53
56182;BME280;51963;46.052;14.544;2023-03-08T10:25:59;97080.03;;;13.45;69.30
56182;BME280;51963;46.052;14.544;2023-03-08T10:28:25;97079.19;;;13.16;68.72
56182;BME280;51963;46.052;14.544;2023-03-08T10:30:59;97075.09;;;13.37;68.92
56182;BME280;51963;46.052;14.544;2023-03-08T10:33:32;97069.53;;;12.98;69.43
56182;BME280;51963;46.052;14.544;2023-03-08T10:36:20;97080.56;;;12.77;70.80
56182;BME280;51963;46.052;14.544;2023-03-08T10:39:04;97070.31;;;13.10;70.07
56182;BME280;51963;46.052;14.544;2023-03-08T10:41:31;97060.63;;;13.45;69.57
56182;BME280;51963;46.052;14.544;2023-03-08T10:44:00;97070.81;;;13.36;68.83
56182;BME280;51963;46.052;14.544;2023-03-08T10:46:28;97068.69;;;13.50;68.59
56182;BME280;51963;46.052;14.544;2023-03-08T10:49:12;97052.28;;;13.53;68.25
56182;BME280;51963;46.052;14.544;2023-03-08T10:51:39;97058.63;;;13.52;67.40
56182;BME280;51963;46.052;14.544;2023-03-08T10:54:05;97049.91;;;13.40;67.98
56182;BME280;51963;46.052;14.544;2023-03-08T10:59:01;97052.09;;;13.14;69.58
56182;BME280;51963;46.052;14.544;2023-03-08T11:01:32;97036.25;;;13.19;69.29
56182;BME280;51963;46.052;14.544;2023-03-08T11:04:04;97023.84;;;13.83;67.07
56182;BME280;51963;46.052;14.544;2023-03-08T11:06:31;97022.22;;;14.77;63.84
56182;BME280;51963;46.052;14.544;2023-03-08T11:08:59;97028.00;;;15.19;62.00
56182;BME280;51963;46.052;14.544;2023-03-08T11:11:25;97025.44;;;15.89;60.35
56182;BME280;51963;46.052;14.544;2023-03-08T11:13:52;97026.03;;;15.09;61.14
56182;BME280;51963;46.052;14.544;2023-03-08T11:32:44;97016.50;;;13.90;66.75
56182;BME280;51963;46.052;14.544;2023-03-08T11:35:42;97012.22;;;13.72;68.01
56182;BME280;51963;46.052;14.544;2023-03-08T11:38:17;97000.31;;;13.57;68.66
56182;BME280;51963;46.052;14.544;2023-03-08T11:57:31;96998.16;;;13.25;69.80
56182;BME280;51963;46.052;14.544;2023-03-08T12:00:04;96989.28;;;13.48;68.39
56182;BME280;51963;46.052;14.544;2023-03-08T12:02:42;96986.19;;;13.40;67.54
56182;BME280;51963;46.052;14.544;2023-03-08T12:05:26;96964.72;;;13.41;67.54
56182;BME280;51963;46.052;14.544;2023-03-08T12:08:24;96988.41;;;13.43;68.06
56182;BME280;51963;46.052;14.544;2023-03-08T12:11:05;96987.63;;;13.30;67.99
56182;BME280;51963;46.052;14.544;2023-03-08T12:13:38;96993.63;;;13.09;69.22
56182;BME280;51963;46.052;14.544;2023-03-08T12:16:17;96984.78;;;12.62;70.56
56182;BME280;51963;46.052;14.544;2023-03-08T12:19:02;96985.13;;;12.95;70.36
56182;BME280;51963;46.052;14.544;2023-03-08T12:32:27;96980.22;;;13.32;69.42
56182;BME280;51963;46.052;14.544;2023-03-08T12:35:25;96969.00;;;13.59;68.11
56182;BME280;51963;46.052;14.544;2023-03-08T12:37:59;96966.50;;;13.70;67.64
56182;BME280;51963;46.052;14.544;2023-03-08T12:40:46;96964.75;;;13.58;67.45
56182;BME280;51963;46.052;14.544;2023-03-08T12:43:27;96977.13;;;13.70;67.71
56182;BME280;51963;46.052;14.544;2023-03-08T12:48:25;96967.50;;;15.42;62.36
56182;BME280;51963;46.052;14.544;2023-03-08T13:01:40;96955.16;;;13.91;65.06
56182;BME280;51963;46.052;14.544;2023-03-08T13:09:29;96954.16;;;13.98;66.03
56182;BME280;51963;46.052;14.544;2023-03-08T13:20:03;96947.63;;;15.22;61.32
56182;BME280;51963;46.052;14.544;2023-03-08T13:22:51;96943.25;;;14.61;62.22
56182;BME280;51963;46.052;14.544;2023-03-08T13:28:15;96936.19;;;14.05;63.95
56182;BME280;51963;46.052;14.544;2023-03-08T13:30:46;96939.19;;;14.31;63.87
56182;BME280;51963;46.052;14.544;2023-03-08T13:33:18;96940.28;;;14.35;63.16
56182;BME280;51963;46.052;14.544;2023-03-08T13:38:25;96932.13;;;13.97;65.33
56182;BME280;51963;46.052;14.544;2023-03-08T13:40:56;96953.00;;;13.54;65.97
56182;BME280;51963;46.052;14.544;2023-03-08T13:43:24;96962.13;;;13.29;66.90
56182;BME280;51963;46.052;14.544;2023-03-08T13:45:53;96957.19;;;13.50;66.42
56182;BME280;51963;46.052;14.544;2023-03-08T13:48:20;96976.53;;;13.33;67.31
56182;BME280;51963;46.052;14.544;2023-03-08T13:50:49;96973.34;;;13.02;68.22
56182;BME280;51963;46.052;14.544;2023-03-08T13:53:30;96987.59;;;12.84;69.44
56182;BME280;51963;46.052;14.544;2023-03-08T13:56:02;96949.38;;;12.68;68.64
56182;BME280;51963;46.052;14.544;2023-03-08T13:58:45;96990.88;;;13.03;69.22
56182;BME280;51963;46.052;14.544;2023-03-08T14:01:18;96989.25;;;13.02;68.82
56182;BME280;51963;46.052;14.544;2023-03-08T14:03:54;96921.75;;;12.52;69.95
56182;BME280;51963;46.052;14.544;2023-03-08T14:06:29;96969.97;;;12.78;70.49
56182;BME280;51963;46.052;14.544;2023-03-08T14:08:58;96983.19;;;12.90;70.53
56182;BME280;51963;46.052;14.544;2023-03-08T14:11:32;96984.69;;;13.15;69.97
56182;BME280;51963;46.052;14.544;2023-03-08T14:14:01;96973.13;;;13.50;68.56
56182;BME280;51963;46.052;14.544;2023-03-08T14:16:30;96981.00;;;13.79;67.67
56182;BME280;51963;46.052;14.544;2023-03-08T14:21:50;96958.28;;;13.37;68.47
56182;BME280;51963;46.052;14.544;2023-03-08T14:24:37;96990.09;;;13.20;69.66
56182;BME280;51963;46.052;14.544;2023-03-08T14:27:23;96993.66;;;12.97;69.96
56182;BME280;51963;46.052;14.544;2023-03-08T14:30:00;96989.50;;;12.60;71.71
56182;BME280;51963;46.052;14.544;2023-03-08T14:32:32;96984.91;;;12.55;72.25
56182;BME280;51963;46.052;14.544;2023-03-08T14:35:06;96997.31;;;12.67;72.42